sensor_id;sensor_type;location;lat;lon;timestamp;pressure;altitude;pressure_sealevel;temperature;humidity
71151;BME280;59071;42.138;24.768;2023-01-28T00:01:48;98922.97;;;3.77;70.05
71151;BME280;59071;42.138;24.768;2023-01-28T00:04:13;98931.03;;;3.76;69.95
71151;BME280;59071;42.138;24.768;2023-01-28T00:06:39;98927.47;;;3.68;70.13
71151;BME280;59071;42.138;24.768;2023-01-28T00:09:04;98923.16;;;3.90;69.36
71151;BME280;59071;42.138;24.768;2023-01-28T00:11:29;98931.41;;;3.87;69.72
71151;BME280;59071;42.138;24.768;2023-01-28T00:13:55;98932.75;;;3.83;70.14
71151;BME280;59071;42.138;24.768;2023-01-28T00:16:20;98932.34;;;4.09;68.98
71151;BME280;59071;42.138;24.768;2023-01-28T00:18:51;98929.22;;;3.91;69.94
71151;BME280;59071;42.138;24.768;2023-01-28T00:21:16;98934.19;;;3.71;69.89
71151;BME280;59071;42.138;24.768;2023-01-28T00:23:42;98934.84;;;4.03;69.50
71151;BME280;59071;42.138;24.768;2023-01-28T00:26:11;98946.41;;;4.02;68.77
71151;BME280;59071;42.138;24.768;2023-01-28T00:28:37;98939.34;;;3.64;70.45
71151;BME280;59071;42.138;24.768;2023-01-28T00:31:06;98941.91;;;3.72;70.34
71151;BME280;59071;42.138;24.768;2023-01-28T00:33:33;98945.81;;;3.77;70.07
71151;BME280;59071;42.138;24.768;2023-01-28T00:35:59;98947.94;;;3.96;69.05
71151;BME280;59071;42.138;24.768;2023-01-28T00:38:25;98951.97;;;3.69;69.84
71151;BME280;59071;42.138;24.768;2023-01-28T00:40:50;98960.81;;;3.91;69.68
71151;BME280;59071;42.138;24.768;2023-01-28T00:43:16;98937.00;;;3.84;69.06
71151;BME280;59071;42.138;24.768;2023-01-28T00:45:41;98970.28;;;4.15;68.60
71151;BME280;59071;42.138;24.768;2023-01-28T00:48:06;98970.72;;;3.89;69.55
71151;BME280;59071;42.138;24.768;2023-01-28T00:50:32;98970.53;;;3.90;69.61
71151;BME280;59071;42.138;24.768;2023-01-28T00:52:57;98974.41;;;3.80;69.75
71151;BME280;59071;42.138;24.768;2023-01-28T00:55:23;98977.13;;;3.71;70.65
71151;BME280;59071;42.138;24.768;2023-01-28T00:57:48;98968.59;;;3.69;70.80
71151;BME280;59071;42.138;24.768;2023-01-28T01:00:13;98972.69;;;3.49;71.20
71151;BME280;59071;42.138;24.768;2023-01-28T01:02:39;98980.44;;;3.65;70.91
71151;BME280;59071;42.138;24.768;2023-01-28T01:05:04;98974.69;;;4.00;70.22
71151;BME280;59071;42.138;24.768;2023-01-28T01:07:30;98978.91;;;3.94;69.99
71151;BME280;59071;42.138;24.768;2023-01-28T01:10:17;98977.97;;;3.87;70.06
71151;BME280;59071;42.138;24.768;2023-01-28T01:12:44;98976.06;;;3.96;69.34
71151;BME280;59071;42.138;24.768;2023-01-28T01:15:10;98977.53;;;4.13;68.87
71151;BME280;59071;42.138;24.768;2023-01-28T01:17:36;98982.25;;;4.03;69.42
71151;BME280;59071;42.138;24.768;2023-01-28T01:20:02;98978.78;;;3.87;69.77
71151;BME280;59071;42.138;24.768;2023-01-28T01:22:28;98980.44;;;3.88;69.68
71151;BME280;59071;42.138;24.768;2023-01-28T01:24:55;98976.22;;;3.79;69.68
71151;BME280;59071;42.138;24.768;2023-01-28T01:27:20;98985.09;;;3.78;70.13
71151;BME280;59071;42.138;24.768;2023-01-28T01:29:45;98982.59;;;4.00;69.26
71151;BME280;59071;42.138;24.768;2023-01-28T01:32:11;98994.44;;;3.66;70.14
71151;BME280;59071;42.138;24.768;2023-01-28T01:34:36;98985.41;;;3.83;70.58
71151;BME280;59071;42.138;24.768;2023-01-28T01:37:01;98987.22;;;3.83;69.80
71151;BME280;59071;42.138;24.768;2023-01-28T01:39:27;98988.03;;;3.83;69.42
71151;BME280;59071;42.138;24.768;2023-01-28T01:41:53;99002.56;;;3.79;69.80
71151;BME280;59071;42.138;24.768;2023-01-28T01:47:02;99003.69;;;3.77;70.03
71151;BME280;59071;42.138;24.768;2023-01-28T01:49:27;99005.94;;;3.65;70.17
71151;BME280;59071;42.138;24.768;2023-01-28T01:51:53;99001.75;;;3.94;69.91
71151;BME280;59071;42.138;24.768;2023-01-28T01:54:20;99007.66;;;3.96;68.91
71151;BME280;59071;42.138;24.768;2023-01-28T01:56:47;99003.75;;;3.91;69.58
71151;BME280;59071;42.138;24.768;2023-01-28T01:59:15;99019.91;;;3.88;68.65
71151;BME280;59071;42.138;24.768;2023-01-28T02:01:42;99014.88;;;4.02;69.48
71151;BME280;59071;42.138;24.768;2023-01-28T02:04:11;99014.81;;;3.87;68.85
71151;BME280;59071;42.138;24.768;2023-01-28T02:06:39;99028.03;;;3.79;68.84
71151;BME280;59071;42.138;24.768;2023-01-28T02:09:24;99013.75;;;3.96;68.72
71151;BME280;59071;42.138;24.768;2023-01-28T02:11:51;99023.78;;;3.78;68.57
71151;BME280;59071;42.138;24.768;2023-01-28T02:14:17;99025.81;;;3.90;68.36
71151;BME280;59071;42.138;24.768;2023-01-28T02:16:42;99031.34;;;3.96;68.56
71151;BME280;59071;42.138;24.768;2023-01-28T02:19:08;99036.47;;;4.12;68.03
71151;BME280;59071;42.138;24.768;2023-01-28T02:24:17;99026.75;;;4.13;68.39
71151;BME280;59071;42.138;24.768;2023-01-28T02:29:16;99037.50;;;4.41;67.12
71151;BME280;59071;42.138;24.768;2023-01-28T02:32:29;99038.94;;;4.14;67.06
71151;BME280;59071;42.138;24.768;2023-01-28T02:34:42;99036.78;;;4.17;67.55
71151;BME280;59071;42.138;24.768;2023-01-28T02:39:46;99041.28;;;4.08;67.66
71151;BME280;59071;42.138;24.768;2023-01-28T02:42:26;99042.63;;;4.04;67.72
71151;BME280;59071;42.138;24.768;2023-01-28T02:44:53;99049.50;;;3.90;67.88
71151;BME280;59071;42.138;24.768;2023-01-28T02:47:18;99050.84;;;4.09;68.15
71151;BME280;59071;42.138;24.768;2023-01-28T02:50:04;99040.31;;;3.86;67.51
71151;BME280;59071;42.138;24.768;2023-01-28T02:52:51;99055.47;;;3.84;68.05
71151;BME280;59071;42.138;24.768;2023-01-28T03:06:09;99060.25;;;3.81;66.95
71151;BME280;59071;42.138;24.768;2023-01-28T03:08:46;99056.09;;;4.24;65.88
71151;BME280;59071;42.138;24.768;2023-01-28T03:11:33;99060.78;;;3.99;66.42
71151;BME280;59071;42.138;24.768;2023-01-28T03:14:18;99063.75;;;4.19;66.38
71151;BME280;59071;42.138;24.768;2023-01-28T03:17:02;99064.88;;;3.56;67.32
71151;BME280;59071;42.138;24.768;2023-01-28T03:19:46;99065.88;;;4.01;66.35
71151;BME280;59071;42.138;24.768;2023-01-28T03:22:31;99065.81;;;3.86;67.04
71151;BME280;59071;42.138;24.768;2023-01-28T03:25:17;99065.13;;;3.69;67.00
71151;BME280;59071;42.138;24.768;2023-01-28T03:28:03;99057.53;;;3.74;66.95
71151;BME280;59071;42.138;24.768;2023-01-28T03:33:34;99072.34;;;4.13;65.43
71151;BME280;59071;42.138;24.768;2023-01-28T03:36:19;99072.06;;;4.08;65.87
71151;BME280;59071;42.138;24.768;2023-01-28T03:39:04;99066.88;;;3.77;65.97
71151;BME280;59071;42.138;24.768;2023-01-28T03:41:29;99074.53;;;3.86;66.44
71151;BME280;59071;42.138;24.768;2023-01-28T03:43:54;99073.19;;;4.14;65.31
71151;BME280;59071;42.138;24.768;2023-01-28T03:46:20;99080.94;;;4.07;65.54
71151;BME280;59071;42.138;24.768;2023-01-28T03:48:46;99082.13;;;4.04;65.56
71151;BME280;59071;42.138;24.768;2023-01-28T03:51:11;99074.09;;;3.98;65.25
71151;BME280;59071;42.138;24.768;2023-01-28T03:53:37;99082.63;;;3.85;66.30
71151;BME280;59071;42.138;24.768;2023-01-28T03:56:03;99087.03;;;3.84;66.76
71151;BME280;59071;42.138;24.768;2023-01-28T03:58:28;99083.19;;;3.95;66.07
71151;BME280;59071;42.138;24.768;2023-01-28T04:01:10;99093.72;;;3.95;66.29
71151;BME280;59071;42.138;24.768;2023-01-28T04:03:35;99090.84;;;3.82;66.35
71151;BME280;59071;42.138;24.768;2023-01-28T04:06:02;99088.13;;;3.75;65.95
71151;BME280;59071;42.138;24.768;2023-01-28T04:08:28;99089.56;;;3.78;65.99
71151;BME280;59071;42.138;24.768;2023-01-28T04:10:53;99092.13;;;3.63;66.55
71151;BME280;59071;42.138;24.768;2023-01-28T04:13:18;99094.84;;;3.55;66.87
71151;BME280;59071;42.138;24.768;2023-01-28T04:15:44;99096.69;;;3.46;67.26
71151;BME280;59071;42.138;24.768;2023-01-28T04:18:10;99088.94;;;3.44;67.61
71151;BME280;59071;42.138;24.768;2023-01-28T04:20:36;99089.75;;;3.76;66.85
71151;BME280;59071;42.138;24.768;2023-01-28T04:23:02;99085.59;;;3.82;66.10
71151;BME280;59071;42.138;24.768;2023-01-28T04:25:27;99092.44;;;3.91;66.49
71151;BME280;59071;42.138;24.768;2023-01-28T04:27:52;99096.47;;;4.02;66.17
71151;BME280;59071;42.138;24.768;2023-01-28T04:30:18;99095.69;;;4.16;64.93
71151;BME280;59071;42.138;24.768;2023-01-28T04:32:45;99093.56;;;3.97;65.06
71151;BME280;59071;42.138;24.768;2023-01-28T04:35:10;99099.75;;;4.04;65.08
71151;BME280;59071;42.138;24.768;2023-01-28T04:37:35;99093.59;;;3.65;65.98
71151;BME280;59071;42.138;24.768;2023-01-28T04:40:00;99094.53;;;3.72;66.65
71151;BME280;59071;42.138;24.768;2023-01-28T04:42:26;99111.81;;;3.75;66.08
71151;BME280;59071;42.138;24.768;2023-01-28T04:44:51;99104.88;;;3.51;67.00
71151;BME280;59071;42.138;24.768;2023-01-28T04:47:16;99111.25;;;3.57;67.40
71151;BME280;59071;42.138;24.768;2023-01-28T04:49:43;99106.22;;;3.47;67.05
71151;BME280;59071;42.138;24.768;2023-01-28T04:52:09;99124.28;;;3.73;67.27
71151;BME280;59071;42.138;24.768;2023-01-28T04:54:34;99121.63;;;3.58;66.84
71151;BME280;59071;42.138;24.768;2023-01-28T04:56:59;99127.63;;;3.67;66.50
71151;BME280;59071;42.138;24.768;2023-01-28T04:59:25;99136.41;;;3.59;67.03
71151;BME280;59071;42.138;24.768;2023-01-28T05:01:50;99127.03;;;3.57;66.15
71151;BME280;59071;42.138;24.768;2023-01-28T05:04:15;99134.94;;;3.57;66.42
71151;BME280;59071;42.138;24.768;2023-01-28T05:06:41;99138.66;;;3.94;65.73
71151;BME280;59071;42.138;24.768;2023-01-28T05:09:06;99139.91;;;3.51;66.56
71151;BME280;59071;42.138;24.768;2023-01-28T05:11:32;99148.44;;;3.53;67.06
71151;BME280;59071;42.138;24.768;2023-01-28T05:13:57;99144.03;;;3.77;66.90
71151;BME280;59071;42.138;24.768;2023-01-28T05:16:22;99145.78;;;3.62;67.21
71151;BME280;59071;42.138;24.768;2023-01-28T05:18:47;99145.53;;;3.40;67.42
71151;BME280;59071;42.138;24.768;2023-01-28T05:21:15;99149.28;;;3.46;67.84
71151;BME280;59071;42.138;24.768;2023-01-28T05:23:40;99154.00;;;3.59;67.81
71151;BME280;59071;42.138;24.768;2023-01-28T05:26:06;99159.78;;;3.85;66.81
71151;BME280;59071;42.138;24.768;2023-01-28T05:28:33;99161.34;;;3.71;66.76
71151;BME280;59071;42.138;24.768;2023-01-28T05:31:04;99157.50;;;3.51;67.61
71151;BME280;59071;42.138;24.768;2023-01-28T05:33:30;99158.31;;;3.83;66.95
71151;BME280;59071;42.138;24.768;2023-01-28T05:35:55;99159.84;;;3.77;66.93
71151;BME280;59071;42.138;24.768;2023-01-28T05:38:21;99166.66;;;3.86;66.48
71151;BME280;59071;42.138;24.768;2023-01-28T05:40:46;99163.13;;;3.40;67.53
71151;BME280;59071;42.138;24.768;2023-01-28T05:43:12;99172.94;;;3.85;67.39
71151;BME280;59071;42.138;24.768;2023-01-28T05:45:37;99175.00;;;3.98;66.48
71151;BME280;59071;42.138;24.768;2023-01-28T05:48:02;99181.56;;;4.02;66.10
71151;BME280;59071;42.138;24.768;2023-01-28T05:50:28;99186.69;;;3.96;66.75
71151;BME280;59071;42.138;24.768;2023-01-28T05:52:53;99177.94;;;3.72;67.30
71151;BME280;59071;42.138;24.768;2023-01-28T05:55:18;99187.13;;;3.76;67.12
71151;BME280;59071;42.138;24.768;2023-01-28T05:57:43;99191.75;;;3.74;67.02
71151;BME280;59071;42.138;24.768;2023-01-28T06:00:09;99198.78;;;3.82;67.48
71151;BME280;59071;42.138;24.768;2023-01-28T06:02:34;99204.88;;;4.05;74.00
71151;BME280;59071;42.138;24.768;2023-01-28T06:05:00;99201.44;;;4.05;66.72
71151;BME280;59071;42.138;24.768;2023-01-28T06:07:25;99207.72;;;4.27;67.32
71151;BME280;59071;42.138;24.768;2023-01-28T06:09:50;99212.25;;;4.56;67.05
71151;BME280;59071;42.138;24.768;2023-01-28T06:12:15;99220.75;;;4.66;65.11
71151;BME280;59071;42.138;24.768;2023-01-28T06:14:41;99220.13;;;4.41;65.26
71151;BME280;59071;42.138;24.768;2023-01-28T06:17:06;99216.84;;;4.16;65.75
71151;BME280;59071;42.138;24.768;2023-01-28T06:19:32;99232.06;;;4.29;65.50
71151;BME280;59071;42.138;24.768;2023-01-28T06:21:57;99229.03;;;3.86;66.91
71151;BME280;59071;42.138;24.768;2023-01-28T06:24:22;99230.25;;;4.06;67.01
71151;BME280;59071;42.138;24.768;2023-01-28T06:26:48;99238.72;;;4.17;66.20
71151;BME280;59071;42.138;24.768;2023-01-28T06:29:13;99247.88;;;4.29;65.82
71151;BME280;59071;42.138;24.768;2023-01-28T06:31:39;99246.28;;;4.20;65.94
71151;BME280;59071;42.138;24.768;2023-01-28T06:34:04;99249.56;;;4.22;67.03
71151;BME280;59071;42.138;24.768;2023-01-28T06:36:30;99245.88;;;4.08;66.84
71151;BME280;59071;42.138;24.768;2023-01-28T06:38:55;99246.69;;;3.77;67.68
71151;BME280;59071;42.138;24.768;2023-01-28T06:41:20;99252.75;;;4.09;67.08
71151;BME280;59071;42.138;24.768;2023-01-28T06:43:46;99256.41;;;4.08;66.82
71151;BME280;59071;42.138;24.768;2023-01-28T06:46:11;99263.28;;;4.09;67.53
71151;BME280;59071;42.138;24.768;2023-01-28T06:48:36;99266.88;;;4.16;67.02
71151;BME280;59071;42.138;24.768;2023-01-28T06:51:01;99269.91;;;4.59;65.76
71151;BME280;59071;42.138;24.768;2023-01-28T06:53:27;99270.75;;;4.98;64.17
71151;BME280;59071;42.138;24.768;2023-01-28T06:55:52;99276.34;;;4.80;67.59
71151;BME280;59071;42.138;24.768;2023-01-28T06:58:17;99273.22;;;5.14;64.03
71151;BME280;59071;42.138;24.768;2023-01-28T07:00:43;99270.94;;;4.50;65.46
71151;BME280;59071;42.138;24.768;2023-01-28T07:03:08;99277.41;;;4.70;65.81
71151;BME280;59071;42.138;24.768;2023-01-28T07:05:33;99288.66;;;5.02;63.58
71151;BME280;59071;42.138;24.768;2023-01-28T07:07:59;99275.50;;;4.56;64.82
71151;BME280;59071;42.138;24.768;2023-01-28T07:10:26;99287.63;;;4.42;66.29
71151;BME280;59071;42.138;24.768;2023-01-28T07:12:51;99287.63;;;4.65;65.10
71151;BME280;59071;42.138;24.768;2023-01-28T07:15:16;99294.38;;;5.06;64.03
71151;BME280;59071;42.138;24.768;2023-01-28T07:17:42;99302.00;;;5.54;62.65
71151;BME280;59071;42.138;24.768;2023-01-28T07:20:08;99292.81;;;5.20;63.24
71151;BME280;59071;42.138;24.768;2023-01-28T07:22:34;99303.63;;;4.87;64.21
71151;BME280;59071;42.138;24.768;2023-01-28T07:25:00;99297.19;;;4.66;65.41
71151;BME280;59071;42.138;24.768;2023-01-28T07:27:25;99302.34;;;4.83;64.82
71151;BME280;59071;42.138;24.768;2023-01-28T07:29:51;99299.41;;;5.16;63.21
71151;BME280;59071;42.138;24.768;2023-01-28T07:32:16;99315.00;;;4.87;64.60
71151;BME280;59071;42.138;24.768;2023-01-28T07:34:41;99304.50;;;5.17;63.75
71151;BME280;59071;42.138;24.768;2023-01-28T07:37:07;99304.50;;;5.17;63.79
71151;BME280;59071;42.138;24.768;2023-01-28T07:39:32;99313.41;;;4.55;65.10
71151;BME280;59071;42.138;24.768;2023-01-28T07:41:58;99318.78;;;4.85;63.87
71151;BME280;59071;42.138;24.768;2023-01-28T07:44:35;99313.09;;;4.96;63.80
71151;BME280;59071;42.138;24.768;2023-01-28T07:47:02;99319.91;;;4.90;64.50
71151;BME280;59071;42.138;24.768;2023-01-28T07:49:27;99319.59;;;5.08;63.64
71151;BME280;59071;42.138;24.768;2023-01-28T07:51:53;99323.81;;;5.33;62.80
71151;BME280;59071;42.138;24.768;2023-01-28T07:54:18;99321.16;;;6.00;61.10
71151;BME280;59071;42.138;24.768;2023-01-28T07:56:43;99324.28;;;6.25;60.02
71151;BME280;59071;42.138;24.768;2023-01-28T07:59:08;99322.16;;;6.36;60.41
71151;BME280;59071;42.138;24.768;2023-01-28T08:01:34;99323.31;;;6.12;59.80
71151;BME280;59071;42.138;24.768;2023-01-28T08:03:59;99327.84;;;6.33;59.87
71151;BME280;59071;42.138;24.768;2023-01-28T08:06:24;99322.38;;;6.34;60.39
71151;BME280;59071;42.138;24.768;2023-01-28T08:08:52;99334.94;;;6.69;59.62
71151;BME280;59071;42.138;24.768;2023-01-28T08:11:17;99331.97;;;7.00;58.00
71151;BME280;59071;42.138;24.768;2023-01-28T08:13:42;99342.66;;;7.13;57.64
71151;BME280;59071;42.138;24.768;2023-01-28T08:16:07;99346.53;;;8.09;55.56
71151;BME280;59071;42.138;24.768;2023-01-28T08:18:33;99347.19;;;8.59;53.98
71151;BME280;59071;42.138;24.768;2023-01-28T08:20:58;99346.13;;;8.47;54.22
71151;BME280;59071;42.138;24.768;2023-01-28T08:23:24;99346.53;;;8.02;55.15
71151;BME280;59071;42.138;24.768;2023-01-28T08:25:51;99352.03;;;8.42;53.81
71151;BME280;59071;42.138;24.768;2023-01-28T08:28:16;99355.16;;;8.59;53.65
71151;BME280;59071;42.138;24.768;2023-01-28T08:30:42;99357.22;;;9.70;52.19
71151;BME280;59071;42.138;24.768;2023-01-28T08:33:09;99365.22;;;9.64;51.44
71151;BME280;59071;42.138;24.768;2023-01-28T08:35:35;99370.31;;;9.38;50.69
71151;BME280;59071;42.138;24.768;2023-01-28T08:38:01;99374.38;;;8.94;50.93
71151;BME280;59071;42.138;24.768;2023-01-28T08:40:27;99372.53;;;8.82;51.23
71151;BME280;59071;42.138;24.768;2023-01-28T08:42:52;99371.34;;;9.04;50.80
71151;BME280;59071;42.138;24.768;2023-01-28T08:45:18;99370.31;;;7.89;52.17
71151;BME280;59071;42.138;24.768;2023-01-28T08:48:03;99368.66;;;7.88;52.65
71151;BME280;59071;42.138;24.768;2023-01-28T08:50:30;99379.13;;;7.96;52.73
71151;BME280;59071;42.138;24.768;2023-01-28T08:52:59;99374.47;;;8.46;52.07
71151;BME280;59071;42.138;24.768;2023-01-28T08:55:25;99372.38;;;9.10;51.58
71151;BME280;59071;42.138;24.768;2023-01-28T08:57:51;99378.09;;;9.27;49.54
71151;BME280;59071;42.138;24.768;2023-01-28T09:00:17;99379.31;;;9.64;49.92
71151;BME280;59071;42.138;24.768;2023-01-28T09:02:43;99388.91;;;9.25;49.95
71151;BME280;59071;42.138;24.768;2023-01-28T09:05:08;99382.19;;;9.23;49.52
71151;BME280;59071;42.138;24.768;2023-01-28T09:07:34;99389.31;;;9.15;49.63
71151;BME280;59071;42.138;24.768;2023-01-28T09:10:00;99389.94;;;9.31;50.08
71151;BME280;59071;42.138;24.768;2023-01-28T09:12:25;99390.38;;;9.54;48.22
71151;BME280;59071;42.138;24.768;2023-01-28T09:14:51;99393.84;;;9.22;48.33
71151;BME280;59071;42.138;24.768;2023-01-28T09:17:17;99391.16;;;9.15;49.29
71151;BME280;59071;42.138;24.768;2023-01-28T09:19:42;99385.63;;;9.03;50.07
71151;BME280;59071;42.138;24.768;2023-01-28T09:22:07;99390.53;;;9.79;48.64
71151;BME280;59071;42.138;24.768;2023-01-28T09:24:32;99382.81;;;9.51;48.30
71151;BME280;59071;42.138;24.768;2023-01-28T09:26:58;99386.50;;;9.37;48.89
71151;BME280;59071;42.138;24.768;2023-01-28T09:29:23;99386.09;;;9.47;48.69
71151;BME280;59071;42.138;24.768;2023-01-28T09:31:48;99384.03;;;9.62;48.10
71151;BME280;59071;42.138;24.768;2023-01-28T09:34:13;99382.81;;;10.43;46.68
71151;BME280;59071;42.138;24.768;2023-01-28T09:36:39;99387.69;;;9.81;47.63
71151;BME280;59071;42.138;24.768;2023-01-28T09:39:04;99380.56;;;9.22;47.88
71151;BME280;59071;42.138;24.768;2023-01-28T09:46:41;99392.22;;;9.41;48.17
71151;BME280;59071;42.138;24.768;2023-01-28T09:49:20;99374.41;;;8.33;50.60
71151;BME280;59071;42.138;24.768;2023-01-28T09:51:49;99384.38;;;8.31;50.34
71151;BME280;59071;42.138;24.768;2023-01-28T09:56:52;99378.41;;;8.64;50.33
71151;BME280;59071;42.138;24.768;2023-01-28T09:59:19;99381.38;;;9.29;49.95
71151;BME280;59071;42.138;24.768;2023-01-28T10:01:50;99388.50;;;9.82;48.48
71151;BME280;59071;42.138;24.768;2023-01-28T10:04:20;99377.25;;;9.06;49.24
71151;BME280;59071;42.138;24.768;2023-01-28T10:09:17;99373.50;;;8.60;50.99
71151;BME280;59071;42.138;24.768;2023-01-28T10:14:19;99379.59;;;8.54;51.06
71151;BME280;59071;42.138;24.768;2023-01-28T10:16:56;99375.72;;;8.50;50.50
71151;BME280;59071;42.138;24.768;2023-01-28T10:21:53;99391.59;;;9.18;49.76
71151;BME280;59071;42.138;24.768;2023-01-28T10:24:34;99381.81;;;8.51;50.17
71151;BME280;59071;42.138;24.768;2023-01-28T10:27:07;99377.56;;;8.56;50.70
71151;BME280;59071;42.138;24.768;2023-01-28T10:29:33;99374.81;;;7.60;52.90
71151;BME280;59071;42.138;24.768;2023-01-28T10:32:01;99384.13;;;8.26;51.52
71151;BME280;59071;42.138;24.768;2023-01-28T10:34:29;99383.66;;;8.50;50.67
71151;BME280;59071;42.138;24.768;2023-01-28T10:36:54;99371.06;;;8.24;51.91
71151;BME280;59071;42.138;24.768;2023-01-28T10:39:21;99385.00;;;8.39;51.97
71151;BME280;59071;42.138;24.768;2023-01-28T10:41:49;99378.56;;;8.49;50.89
71151;BME280;59071;42.138;24.768;2023-01-28T10:44:26;99382.91;;;8.63;50.67
71151;BME280;59071;42.138;24.768;2023-01-28T10:46:54;99381.06;;;8.64;51.46
71151;BME280;59071;42.138;24.768;2023-01-28T10:49:23;99377.78;;;8.61;51.30
71151;BME280;59071;42.138;24.768;2023-01-28T10:51:50;99373.78;;;8.37;51.81
71151;BME280;59071;42.138;24.768;2023-01-28T10:54:19;99378.84;;;8.26;52.03
71151;BME280;59071;42.138;24.768;2023-01-28T10:56:46;99380.00;;;8.10;52.25
71151;BME280;59071;42.138;24.768;2023-01-28T10:59:31;99377.06;;;8.39;52.67
71151;BME280;59071;42.138;24.768;2023-01-28T11:01:58;99373.59;;;8.39;52.33
71151;BME280;59071;42.138;24.768;2023-01-28T11:04:29;99384.88;;;8.06;53.83
71151;BME280;59071;42.138;24.768;2023-01-28T11:07:16;99377.59;;;8.63;52.83
71151;BME280;59071;42.138;24.768;2023-01-28T11:09:43;99389.63;;;8.59;51.58
71151;BME280;59071;42.138;24.768;2023-01-28T11:12:10;99381.91;;;8.71;52.19
71151;BME280;59071;42.138;24.768;2023-01-28T11:14:36;99372.56;;;8.33;53.12
71151;BME280;59071;42.138;24.768;2023-01-28T11:17:01;99375.53;;;7.82;54.55
71151;BME280;59071;42.138;24.768;2023-01-28T11:19:28;99376.38;;;7.82;54.35
71151;BME280;59071;42.138;24.768;2023-01-28T11:21:55;99381.19;;;7.72;54.21
71151;BME280;59071;42.138;24.768;2023-01-28T11:24:22;99376.78;;;8.21;53.42
71151;BME280;59071;42.138;24.768;2023-01-28T11:26:51;99381.63;;;8.52;53.34
71151;BME280;59071;42.138;24.768;2023-01-28T11:29:24;99368.59;;;8.64;51.88
71151;BME280;59071;42.138;24.768;2023-01-28T11:31:51;99374.56;;;8.73;52.02
71151;BME280;59071;42.138;24.768;2023-01-28T11:34:16;99372.25;;;8.50;52.52
71151;BME280;59071;42.138;24.768;2023-01-28T11:36:49;99372.16;;;9.11;50.92
71151;BME280;59071;42.138;24.768;2023-01-28T11:39:24;99368.66;;;8.84;52.03
71151;BME280;59071;42.138;24.768;2023-01-28T11:41:52;99382.78;;;9.65;50.77
71151;BME280;59071;42.138;24.768;2023-01-28T11:44:21;99383.00;;;9.63;50.55
71151;BME280;59071;42.138;24.768;2023-01-28T11:46:57;99381.38;;;9.62;50.53
71151;BME280;59071;42.138;24.768;2023-01-28T11:51:53;99381.50;;;8.74;53.15
71151;BME280;59071;42.138;24.768;2023-01-28T11:54:41;99380.66;;;8.67;52.21
71151;BME280;59071;42.138;24.768;2023-01-28T12:40:32;99416.06;;;7.26;57.55
71151;BME280;59071;42.138;24.768;2023-01-28T12:43:09;99418.81;;;7.61;57.63
71151;BME280;59071;42.138;24.768;2023-01-28T12:45:42;99419.31;;;7.71;56.29
71151;BME280;59071;42.138;24.768;2023-01-28T12:48:15;99423.16;;;6.82;59.30
71151;BME280;59071;42.138;24.768;2023-01-28T12:50:46;99419.84;;;6.95;59.34
71151;BME280;59071;42.138;24.768;2023-01-28T12:56:06;99434.47;;;7.34;59.27
71151;BME280;59071;42.138;24.768;2023-01-28T13:01:14;99433.13;;;7.02;60.36
71151;BME280;59071;42.138;24.768;2023-01-28T13:06:53;99434.97;;;7.44;59.98
71151;BME280;59071;42.138;24.768;2023-01-28T13:09:12;99437.00;;;7.21;60.78
71151;BME280;59071;42.138;24.768;2023-01-28T13:11:40;99439.91;;;7.26;60.62
71151;BME280;59071;42.138;24.768;2023-01-28T13:14:06;99440.94;;;6.89;61.61
71151;BME280;59071;42.138;24.768;2023-01-28T13:16:32;99449.78;;;7.17;61.33
71151;BME280;59071;42.138;24.768;2023-01-28T13:19:35;99446.34;;;6.80;61.83
71151;BME280;59071;42.138;24.768;2023-01-28T13:21:49;99451.88;;;6.34;62.86
71151;BME280;59071;42.138;24.768;2023-01-28T13:29:28;99463.63;;;6.32;62.69
71151;BME280;59071;42.138;24.768;2023-01-28T13:31:52;99466.59;;;6.58;62.78
71151;BME280;59071;42.138;24.768;2023-01-28T13:39:50;99472.44;;;6.09;63.17
71151;BME280;59071;42.138;24.768;2023-01-28T13:44:49;99476.50;;;5.59;64.58
71151;BME280;59071;42.138;24.768;2023-01-28T13:47:31;99478.28;;;5.43;65.15
71151;BME280;59071;42.138;24.768;2023-01-28T13:50:01;99483.88;;;5.63;65.68
71151;BME280;59071;42.138;24.768;2023-01-28T13:52:50;99484.69;;;5.49;66.29
71151;BME280;59071;42.138;24.768;2023-01-28T13:55:21;99482.38;;;5.23;67.21
71151;BME280;59071;42.138;24.768;2023-01-28T14:08:30;99497.53;;;5.52;67.07
71151;BME280;59071;42.138;24.768;2023-01-28T14:13:36;99504.13;;;5.71;66.16
71151;BME280;59071;42.138;24.768;2023-01-28T14:18:36;99503.91;;;5.58;66.80
71151;BME280;59071;42.138;24.768;2023-01-28T14:21:07;99497.28;;;5.62;67.50
71151;BME280;59071;42.138;24.768;2023-01-28T14:23:34;99505.94;;;5.71;66.90
71151;BME280;59071;42.138;24.768;2023-01-28T14:26:04;99505.00;;;5.40;68.36
71151;BME280;59071;42.138;24.768;2023-01-28T14:31:20;99516.41;;;5.64;67.92
71151;BME280;59071;42.138;24.768;2023-01-28T14:33:48;99515.69;;;5.24;69.35
71151;BME280;59071;42.138;24.768;2023-01-28T14:36:14;99515.94;;;5.37;69.22
71151;BME280;59071;42.138;24.768;2023-01-28T14:38:40;99525.47;;;5.61;68.42
71151;BME280;59071;42.138;24.768;2023-01-28T14:41:07;99518.22;;;5.40;68.22
71151;BME280;59071;42.138;24.768;2023-01-28T14:43:33;99523.13;;;4.89;69.46
71151;BME280;59071;42.138;24.768;2023-01-28T14:49:21;99529.13;;;5.83;68.41
71151;BME280;59071;42.138;24.768;2023-01-28T14:59:22;99535.75;;;5.33;67.90
71151;BME280;59071;42.138;24.768;2023-01-28T15:01:53;99536.59;;;5.57;68.61
71151;BME280;59071;42.138;24.768;2023-01-28T15:04:26;99536.56;;;6.03;66.78
71151;BME280;59071;42.138;24.768;2023-01-28T15:06:52;99543.16;;;5.38;67.77
71151;BME280;59071;42.138;24.768;2023-01-28T15:09:17;99548.59;;;5.59;67.67
71151;BME280;59071;42.138;24.768;2023-01-28T15:11:43;99554.97;;;5.73;66.62
71151;BME280;59071;42.138;24.768;2023-01-28T15:14:15;99556.50;;;7.03;75.95
71151;BME280;59071;42.138;24.768;2023-01-28T15:16:47;99554.25;;;7.58;64.10
71151;BME280;59071;42.138;24.768;2023-01-28T15:19:13;99556.31;;;7.04;61.20
71151;BME280;59071;42.138;24.768;2023-01-28T15:21:39;99562.06;;;6.49;62.59